Latest Weather Observations for Halls Creek

IDW60801

Issued at 11:03 pm WST Friday 9 December 2016 (issued every 30 minutes, with the page automatically refreshed every 10 minutes)

About weather observations | Map of weather stations | Latest weather observations for WA | Other Formats
Station Details ID: 002012 Name: HALLS CREEK AIRPORT Lat: -18.23 Lon: 127.66 Height: 422.0 m
Data from the previous 72 hours. | See also: Recent months at Halls Creek
Date/Time
WST
Temp
°C
App
Temp
°C
Dew
Point
°C
Rel
Hum
%
Delta-T
°C
Wind Press
QNH
hPa
Press
MSL
hPa
Rain since
9am
mm
Dir  Spd
km/h
Gust
km/h
Spd
kts
Gust
kts
09/10:30pm 24.7 29.2 22.9 90 1.2 ENE 4 7 2 4 1013.5 - 32.6
09/10:00pm 24.5 28.6 22.9 91 1.1 ESE 6 11 3 6 1013.7 - 32.6
09/09:30pm 24.4 28.1 23.2 93 0.8 SE 9 15 5 8 1013.3 - 32.4
09/09:00pm 24.1 28.9 22.9 93 0.8 S 2 6 1 3 1013.4 1009.9 32.4
09/08:30pm 23.7 27.9 22.5 93 0.8 SE 4 11 2 6 1013.3 - 32.2
09/08:00pm 23.5 27.2 22.3 93 0.8 S 6 15 3 8 1013.0 - 31.6
09/07:30pm 23.8 27.5 22.6 93 0.8 S 7 15 4 8 1012.4 - 29.2
09/07:00pm 23.8 26.8 22.6 93 0.8 SSW 11 24 6 13 1012.4 - 28.6
09/06:30pm 22.5 25.4 21.7 95 0.5 SSW 9 19 5 10 1012.0 - 27.4
09/06:00pm 22.9 24.4 21.2 90 1.1 S 15 28 8 15 1011.2 1007.7 16.0
09/05:44pm 26.2 27.2 21.0 73 3.5 S 17 35 9 19 1011.2 - 0.6
09/05:30pm 31.4 33.0 19.1 48 8.1 NNW 9 28 5 15 1009.8 - 0.0
09/05:00pm 32.2 31.1 17.7 42 9.4 NNE 20 39 11 21 1008.0 - 0.0
09/04:30pm 36.9 36.3 13.6 24 14.5 ESE 9 19 5 10 1006.7 - 0.0
09/04:00pm 37.3 36.6 13.3 23 14.9 E 9 19 5 10 1006.3 - 0.0
09/03:30pm 38.1 37.1 13.3 22 15.5 ESE 11 20 6 11 1006.2 - 0.0
09/03:00pm 39.2 38.0 12.9 21 16.4 ESE 11 26 6 14 1006.0 1002.4 0.0
09/02:30pm 38.7 38.1 14.5 24 15.4 E 11 20 6 11 1006.3 - 0.0
09/02:00pm 38.6 37.9 14.4 24 15.4 ESE 11 26 6 14 1006.8 - 0.0
09/01:30pm 38.7 39.2 15.1 24 15.1 E 6 15 3 8 1007.4 - 0.0
09/01:00pm 38.0 38.2 15.7 26 14.4 ENE 9 20 5 11 1007.9 - 0.0
09/12:30pm 37.9 37.5 15.1 26 14.6 SE 11 20 6 11 1008.4 - 0.0
09/12:00pm 37.7 37.6 16.1 28 14.0 ESE 11 20 6 11 1008.8 1005.2 0.0
09/11:30am 36.7 36.5 14.6 26 14.0 ENE 9 20 5 11 1009.3 - 0.0
09/11:00am 36.3 37.1 15.9 29 13.1 ESE 6 13 3 7 1009.6 - 0.0
09/10:30am 36.2 36.5 15.9 30 13.1 E 9 20 5 11 1010.2 - 0.0
09/10:00am 35.3 35.8 16.6 33 12.1 ENE 9 26 5 14 1010.6 - 0.0
09/09:30am 34.9 35.3 16.2 32 12.0 ENE 9 20 5 11 1011.0 - 0.0
09/09:00am 33.9 34.5 16.7 35 11.1 E 9 22 5 12 1011.2 1007.7 0.0
09/08:30am 32.7 32.4 16.5 37 10.4 E 13 30 7 16 1011.3 - 0.0
09/08:00am 32.2 32.3 16.5 39 10.1 E 11 26 6 14 1011.2 - 0.0
09/07:30am 31.5 30.5 16.6 40 9.5 ESE 17 32 9 17 1011.0 - 0.0
09/07:00am 31.6 30.9 16.3 39 9.8 E 15 30 8 16 1011.0 - 0.0
09/06:30am 31.2 31.5 17.1 42 9.1 E 11 24 6 13 1010.8 - 0.0
09/06:00am 30.4 30.7 17.1 44 8.6 E 11 26 6 14 1010.7 1007.1 0.0
09/05:30am 30.0 30.0 17.1 46 8.3 ESE 13 22 7 12 1010.3 - 0.0
09/05:00am 29.5 29.8 17.0 47 8.0 ESE 11 20 6 11 1009.9 - 0.0
09/04:30am 29.5 29.8 17.0 47 8.0 ESE 11 22 6 12 1009.6 - 0.0
09/04:00am 29.7 29.8 16.5 45 8.4 ESE 11 20 6 11 1009.2 - 0.0
09/03:30am 29.8 30.2 16.2 43 8.6 ESE 9 22 5 12 1009.1 - 0.0
09/03:00am 30.0 29.9 16.1 43 8.8 ESE 11 19 6 10 1008.8 1005.2 0.0
09/02:30am 30.2 29.7 15.9 42 9.0 ESE 13 22 7 12 1008.7 - 0.0
09/02:00am 30.8 29.8 15.6 39 9.6 ESE 15 26 8 14 1008.8 - 0.0
09/01:30am 31.1 29.8 14.7 37 10.2 ESE 15 28 8 15 1008.9 - 0.0
09/01:00am 31.2 30.5 14.4 36 10.4 SE 11 24 6 13 1009.0 - 0.0
09/12:30am 31.0 30.8 14.6 37 10.2 SE 9 20 5 11 1009.1 - 0.0
09/12:00am 31.1 29.6 14.3 36 10.4 SE 15 28 8 15 1009.0 1005.5 0.0
 
Date/Time
WST
Temp
°C
App
Temp
°C
Dew
Point
°C
Rel
Hum
%
Delta-T
°C
Wind Press
QNH
hPa
Press
MSL
hPa
Rain since
9am
mm
Dir  Spd
km/h
Gust
km/h
Spd
kts
Gust
kts
08/11:30pm 31.4 29.4 15.0 37 10.3 SSE 19 33 10 18 1008.9 - 0.0
08/11:00pm 31.6 30.3 14.7 36 10.5 SSE 15 28 8 15 1009.0 - 0.0
08/10:30pm 32.0 30.6 14.6 34 10.8 SSE 15 30 8 16 1009.1 - 0.0
08/10:00pm 32.6 31.3 14.7 34 11.2 SSE 15 32 8 17 1009.1 - 0.0
08/09:30pm 33.5 33.0 15.0 32 11.6 SE 11 20 6 11 1009.4 - 0.0
08/09:00pm 33.8 33.6 14.8 32 12.0 SSE 9 22 5 12 1009.3 1005.8 0.0
08/08:30pm 33.7 34.1 14.7 32 11.9 S 6 11 3 6 1009.0 - 0.0
08/08:00pm 33.5 34.7 15.0 32 11.6 SSW 2 4 1 2 1008.6 - 0.0
08/07:30pm 33.1 33.8 15.6 35 11.1 S 6 11 3 6 1008.4 - 0.0
08/07:00pm 33.2 33.6 15.2 33 11.4 NW 7 17 4 9 1008.1 - 0.0
08/06:30pm 33.2 32.8 15.2 33 11.4 NNW 11 22 6 12 1007.8 - 0.0
08/06:00pm 36.2 36.6 13.6 25 14.1 SE 4 7 2 4 1007.1 1003.6 0.0
08/05:30pm 36.5 35.8 13.3 25 14.4 SE 9 19 5 10 1006.5 - 0.0
08/05:00pm 37.8 37.1 13.1 23 15.4 S 9 24 5 13 1006.0 - 0.0
08/04:30pm 38.5 38.8 12.3 21 16.2 S 2 6 1 3 1005.8 - 0.0
08/04:00pm 38.2 37.7 12.0 21 16.1 S 6 13 3 7 1005.7 - 0.0
08/03:30pm 38.1 38.1 11.2 20 16.3 WSW 2 9 1 5 1005.7 - 0.0
08/03:00pm 38.8 38.2 11.8 20 16.6 ESE 6 15 3 8 1005.9 1002.3 0.0
08/02:30pm 39.3 38.8 12.2 20 16.7 SE 6 11 3 6 1006.1 - 0.0
08/02:00pm 39.4 38.5 11.5 19 17.1 SSW 7 20 4 11 1006.3 - 0.0
08/01:30pm 41.5 39.8 12.4 18 18.2 SSE 13 22 7 12 1006.7 - 0.0
08/01:00pm 39.5 38.9 12.4 20 16.8 S 7 19 4 10 1007.1 - 0.0
08/12:30pm 39.1 38.0 12.0 20 16.7 E 9 17 5 9 1007.6 - 0.0
08/12:00pm 38.8 38.3 12.5 21 16.3 SSW 7 17 4 9 1008.0 1004.4 0.0
08/11:30am 37.9 38.0 13.8 23 15.1 SE 6 17 3 9 1008.5 - 0.0
08/11:00am 38.4 37.7 14.2 23 15.3 S 11 20 6 11 1009.1 - 0.0
08/10:30am 37.3 36.9 14.0 25 14.6 SSE 9 24 5 13 1009.6 - 0.0
08/10:00am 36.3 35.6 14.3 27 13.8 ESE 11 24 6 13 1010.3 - 0.0
08/09:30am 35.3 35.1 14.6 29 13.0 SSE 9 24 5 13 1010.6 - 0.0
08/09:00am 34.8 33.8 14.7 30 12.7 SE 13 28 7 15 1010.8 1007.2 0.0
08/08:30am 33.9 32.1 14.4 31 12.2 SSE 17 30 9 16 1010.8 - 0.0
08/08:00am 33.3 31.2 14.8 32 11.6 SE 19 30 10 16 1010.9 - 0.0
08/07:30am 32.1 30.4 14.7 35 10.9 SE 17 33 9 18 1011.0 - 0.0
08/07:00am 31.0 29.1 14.2 36 10.4 SE 17 30 9 16 1010.8 - 0.0
08/06:30am 30.3 28.7 14.0 37 10.0 SE 15 30 8 16 1010.6 - 0.0
08/06:00am 29.5 28.3 14.1 39 9.4 SE 13 24 7 13 1010.3 1006.7 0.0
08/05:30am 28.5 27.3 14.0 41 8.8 SE 13 24 7 13 1009.9 - 0.0
08/05:00am 27.7 26.5 14.0 43 8.3 SSE 13 24 7 13 1009.7 - 0.0
08/04:30am 27.6 27.1 13.9 43 8.3 SSE 9 19 5 10 1009.3 - 0.0
08/04:00am 28.0 27.2 13.9 42 8.6 SSE 11 24 6 13 1008.9 - 0.0
08/03:30am 28.2 28.2 14.1 42 8.6 SSE 7 19 4 10 1008.7 - 0.0
08/03:00am 28.5 28.5 14.3 41 8.7 SE 7 17 4 9 1008.5 1004.9 0.0
08/02:30am 28.8 28.8 14.2 40 8.9 SSE 7 17 4 9 1008.4 - 0.0
08/02:00am 29.3 28.3 14.7 41 9.0 SSE 13 24 7 13 1008.4 - 0.0
08/01:30am 29.5 28.2 14.9 41 9.1 SSE 15 30 8 16 1008.5 - 0.0
08/01:00am 29.8 29.0 15.1 40 9.2 SSE 13 26 7 14 1008.9 - 0.0
08/12:30am 30.0 28.7 14.9 39 9.4 SSE 15 26 8 14 1009.4 - 0.0
08/12:00am 30.5 28.9 15.0 39 9.7 SE 17 30 9 16 1009.3 1005.8 0.0
 
Date/Time
WST
Temp
°C
App
Temp
°C
Dew
Point
°C
Rel
Hum
%
Delta-T
°C
Wind Press
QNH
hPa
Press
MSL
hPa
Rain since
9am
mm
Dir  Spd
km/h
Gust
km/h
Spd
kts
Gust
kts
07/11:30pm 30.7 29.6 15.2 39 9.7 SE 15 32 8 17 1009.8 - 0.0
07/11:00pm 30.9 29.4 15.3 38 9.8 SSE 17 30 9 16 1009.9 - 0.0
07/10:30pm 31.2 30.4 15.2 38 10.0 SSE 13 26 7 14 1009.9 - 0.0
07/10:00pm 31.3 30.9 15.3 38 10.0 S 11 24 6 13 1010.4 - 0.0
07/09:30pm 30.9 31.2 14.5 37 10.2 S 6 13 3 7 1010.4 - 0.0
07/09:00pm 31.1 31.7 14.3 36 10.4 SW 4 7 2 4 1010.2 1006.6 0.0
07/08:30pm 31.9 33.0 14.5 34 10.8 SSW 2 4 1 2 1009.8 - 0.0
07/08:00pm 32.6 32.8 14.2 32 11.4 SSW 6 9 3 5 1009.6 - 0.0
07/07:30pm 33.7 33.6 12.1 27 13.0 W 4 7 2 4 1009.2 - 0.0
07/07:00pm 34.2 34.8 12.0 26 13.4 CALM 0 4 0 2 1008.7 - 0.0
07/06:30pm 34.4 34.5 11.5 25 13.7 WSW 2 4 1 2 1008.3 - 0.0
07/06:00pm 35.2 35.3 11.6 24 14.3 S 2 2 1 1 1008.0 1004.4 0.0
07/05:30pm 36.4 35.9 10.6 21 15.4 SE 4 9 2 5 1007.7 - 0.0
07/05:00pm 37.5 36.8 10.0 19 16.3 N 4 7 2 4 1007.4 - 0.0
07/04:30pm 38.1 37.2 7.9 16 17.4 N 2 7 1 4 1007.2 - 0.0
07/04:00pm 38.3 37.2 10.6 19 16.7 SE 7 19 4 10 1007.2 - 0.0
07/03:30pm 38.8 38.4 11.0 19 16.8 ENE 4 9 2 5 1007.2 - 0.0
07/03:00pm 37.8 37.4 11.0 20 16.2 NNE 4 11 2 6 1007.4 1003.9 0.0
07/02:30pm 37.5 36.6 11.5 21 15.8 NNE 7 17 4 9 1007.8 - 0.0
07/02:00pm 38.9 38.4 11.9 20 16.6 SE 6 15 3 8 1008.0 - 0.0
07/01:30pm 38.5 38.0 10.8 19 16.7 NE 4 13 2 7 1008.5 - 0.0
07/01:00pm 36.9 36.5 13.0 24 14.8 ENE 7 19 4 10 1008.9 - 0.0
07/12:30pm 38.2 38.1 13.4 23 15.5 E 6 15 3 8 1009.2 - 0.0
07/12:00pm 37.8 37.7 15.0 26 14.6 ESE 9 20 5 11 1009.7 1006.2 0.0
07/11:30am 36.1 36.5 15.2 28 13.3 E 7 19 4 10 1010.4 - 0.0
07/11:00am 36.5 37.2 15.6 29 13.4 E 6 19 3 10 1011.0 - 0.0
07/10:30am 35.9 36.6 16.1 30 12.8 E 7 17 4 9 1011.5 - 0.0
07/10:00am 34.6 34.1 16.0 33 11.9 E 13 30 7 16 1011.8 - 0.0
07/09:30am 35.1 34.6 16.9 34 11.8 ESE 15 32 8 17 1012.1 - 0.0
07/09:00am 33.9 32.9 16.7 35 11.1 ESE 17 32 9 17 1012.3 1008.8 0.6
07/08:30am 33.1 32.2 16.9 38 10.5 SE 17 30 9 16 1012.7 - 0.6
07/08:00am 33.1 32.8 17.3 39 10.3 SE 15 28 8 15 1012.8 - 0.6
07/07:30am 31.4 30.5 16.9 41 9.3 SE 17 28 9 15 1012.8 - 0.6
07/07:00am 30.4 30.7 17.8 46 8.2 SE 13 22 7 12 1012.8 - 0.6
07/06:30am 29.1 29.5 18.2 51 7.1 SE 13 26 7 14 1012.6 - 0.6
07/06:00am 27.8 29.0 18.2 56 6.2 SSE 9 19 5 10 1012.3 1008.8 0.6
07/05:30am 26.1 28.5 19.7 68 4.2 SSE 6 11 3 6 1012.2 - 0.6
07/05:00am 24.5 27.2 20.2 77 2.8 S 6 9 3 5 1011.8 - 0.6
07/04:30am 23.7 27.0 20.8 84 1.9 S 4 7 2 4 1011.3 - 0.6
07/04:00am 23.9 27.6 20.8 83 2.1 SSW 2 6 1 3 1011.2 - 0.6
07/03:30am 24.0 27.4 20.9 83 2.1 SW 4 6 2 3 1011.0 - 0.6
07/03:00am 24.0 27.8 20.9 83 2.1 SW 2 4 1 2 1010.8 1007.2 0.6
07/02:30am 23.8 27.9 21.5 87 1.5 W 2 4 1 2 1010.9 - 0.6
07/02:00am 24.0 28.0 21.3 85 1.8 SSW 2 2 1 1 1011.0 - 0.6
07/01:30am 24.4 28.4 21.3 83 2.1 W 2 6 1 3 1010.8 - 0.6
07/01:00am 24.5 27.9 21.0 81 2.3 W 4 6 2 3 1010.8 - 0.6
07/12:30am 24.6 27.9 20.7 79 2.6 WNW 4 7 2 4 1010.7 - 0.6
07/12:00am 24.8 28.0 20.5 77 2.9 WSW 4 6 2 3 1010.8 1007.2 0.6
 
Date/Time
WST
Temp
°C
App
Temp
°C
Dew
Point
°C
Rel
Hum
%
Delta-T
°C
Wind Press
QNH
hPa
Press
MSL
hPa
Rain since
9am
mm
Dir  Spd
km/h
Gust
km/h
Spd
kts
Gust
kts
06/11:30pm 25.1 28.5 20.1 74 3.3 SSW 2 6 1 3 1011.2 - 0.6

Other Formats:

Comma delimited format used in spreadsheet applications
http://www.bom.gov.au/fwo/IDW60801/IDW60801.94212.axf

JavaScript Object Notation format (JSON) in row-major order
http://www.bom.gov.au/fwo/IDW60801/IDW60801.94212.json